createdAt,value
2019-02-20T00:00:09.231Z,9.20
2019-02-20T00:02:41.480Z,10.78
2019-02-20T00:05:13.700Z,9.55
2019-02-20T00:07:45.929Z,18.82
2019-02-20T00:10:18.188Z,13.03
2019-02-20T00:12:50.487Z,10.03
2019-02-20T00:15:22.778Z,14.55
2019-02-20T00:17:55.030Z,7.47
2019-02-20T00:20:28.677Z,13.20
2019-02-20T00:23:00.901Z,16.62
2019-02-20T00:25:33.142Z,12.23
2019-02-20T00:28:05.375Z,12.93
2019-02-20T00:30:37.629Z,9.63
2019-02-20T00:33:09.865Z,16.52
2019-02-20T00:35:42.108Z,11.03
2019-02-20T00:38:14.375Z,12.88
2019-02-20T00:40:46.707Z,15.18
2019-02-20T00:43:18.943Z,15.40
2019-02-20T00:45:56.664Z,11.53
2019-02-20T00:48:45.644Z,18.23
2019-02-20T00:51:19.523Z,14.47
2019-02-20T00:53:53.391Z,8.58
2019-02-20T00:56:25.636Z,18.73
2019-02-20T00:58:57.876Z,16.65
2019-02-20T01:01:30.115Z,19.57
2019-02-20T01:04:02.419Z,14.15
2019-02-20T01:06:34.732Z,13.62
2019-02-20T01:09:07.134Z,10.53
2019-02-20T01:11:39.367Z,11.57
2019-02-20T01:14:11.596Z,12.47
2019-02-20T01:16:43.863Z,10.78
2019-02-20T01:19:16.174Z,17.48
2019-02-20T01:21:48.415Z,15.60
2019-02-20T01:24:20.665Z,10.88
2019-02-20T01:26:52.995Z,10.03
2019-02-20T01:29:25.216Z,12.63
2019-02-20T01:31:57.483Z,13.77
2019-02-20T01:34:29.715Z,10.90
2019-02-20T01:37:01.984Z,15.72
2019-02-20T01:39:34.201Z,12.43
2019-02-20T01:42:06.482Z,12.30
2019-02-20T01:44:38.706Z,17.10
2019-02-20T01:47:11.129Z,11.12
2019-02-20T01:49:43.383Z,13.18
2019-02-20T01:52:15.631Z,9.43
2019-02-20T01:54:47.852Z,11.40
2019-02-20T01:57:20.089Z,9.13
2019-02-20T01:59:52.311Z,9.63
2019-02-20T02:02:24.626Z,8.08
2019-02-20T02:04:56.856Z,10.15
2019-02-20T02:07:29.096Z,11.88
2019-02-20T02:10:01.331Z,14.75
2019-02-20T02:12:33.601Z,14.65
2019-02-20T02:15:07.187Z,10.28
2019-02-20T02:17:39.424Z,13.55
2019-02-20T02:20:11.661Z,12.58
2019-02-20T02:22:43.901Z,17.30
2019-02-20T02:25:16.128Z,11.63
2019-02-20T02:27:48.612Z,7.83
2019-02-20T02:30:20.843Z,10.25
2019-02-20T02:32:53.084Z,12.58
2019-02-20T02:35:25.323Z,10.00
2019-02-20T02:37:57.567Z,15.80
2019-02-20T02:40:29.828Z,14.47
2019-02-20T02:43:02.131Z,10.48
2019-02-20T02:45:34.364Z,11.60
2019-02-20T02:48:06.610Z,12.10
2019-02-20T02:50:38.826Z,12.58
2019-02-20T02:53:11.077Z,10.00
2019-02-20T02:55:43.301Z,13.58
2019-02-20T02:58:15.555Z,13.98
2019-02-20T03:00:47.782Z,11.65
2019-02-20T03:03:20.043Z,7.17
2019-02-20T03:05:52.266Z,20.35
2019-02-20T03:08:24.564Z,20.35
2019-02-20T03:10:56.839Z,14.10
2019-02-20T03:13:29.102Z,11.90
2019-02-20T03:16:01.335Z,10.07
2019-02-20T03:18:33.583Z,9.23
2019-02-20T03:21:05.809Z,11.55
2019-02-20T03:23:40.108Z,20.82
2019-02-20T03:26:12.026Z,10.58
2019-02-20T03:28:44.266Z,18.82
2019-02-20T03:31:16.506Z,15.78
2019-02-20T03:33:48.764Z,16.42
2019-02-20T03:36:21.054Z,11.73
2019-02-20T03:38:53.305Z,10.70
2019-02-20T03:41:25.527Z,16.55
2019-02-20T03:43:57.773Z,14.25
2019-02-20T03:46:30.000Z,15.88
2019-02-20T03:49:02.256Z,10.10
2019-02-20T03:51:34.495Z,11.55
2019-02-20T03:54:06.912Z,15.98
2019-02-20T03:56:39.187Z,15.00
2019-02-20T03:59:11.507Z,14.03
2019-02-20T04:01:43.757Z,19.40
2019-02-20T04:04:16.007Z,13.43
2019-02-20T04:06:48.245Z,12.03
2019-02-20T04:09:20.485Z,15.35
2019-02-20T04:11:52.721Z,16.02
2019-02-20T04:14:24.980Z,12.03
2019-02-20T04:16:57.211Z,18.82
2019-02-20T04:19:29.459Z,18.87
2019-02-20T04:22:01.866Z,10.10
2019-02-20T04:24:34.091Z,10.43
2019-02-20T04:27:06.415Z,15.38
2019-02-20T04:29:38.723Z,9.63
2019-02-20T04:32:10.979Z,14.50
2019-02-20T04:34:43.227Z,13.75
2019-02-20T04:37:15.792Z,13.53
2019-02-20T04:39:48.060Z,15.08
2019-02-20T04:42:20.290Z,12.98
2019-02-20T04:44:52.523Z,12.53
2019-02-20T04:47:24.994Z,13.78
2019-02-20T04:49:57.251Z,19.40
2019-02-20T04:52:29.485Z,20.52
2019-02-20T04:55:01.732Z,14.47
2019-02-20T04:57:33.966Z,11.75
2019-02-20T05:00:07.756Z,11.35
2019-02-20T05:02:39.982Z,13.13
2019-02-20T05:05:12.231Z,15.58
2019-02-20T05:07:44.465Z,12.43
2019-02-20T05:10:16.715Z,13.03
2019-02-20T05:12:48.944Z,14.60
2019-02-20T05:15:21.205Z,15.18
2019-02-20T05:17:53.447Z,14.15
2019-02-20T05:20:25.678Z,12.25
2019-02-20T05:22:57.937Z,15.13
2019-02-20T05:25:30.186Z,12.90
2019-02-20T05:28:02.461Z,13.65
2019-02-20T05:30:34.729Z,20.37
2019-02-20T05:33:06.955Z,16.15
2019-02-20T05:35:39.187Z,12.88
2019-02-20T05:38:11.420Z,13.98
2019-02-20T05:40:43.672Z,14.73
2019-02-20T05:43:15.909Z,11.25
2019-02-20T05:45:48.159Z,11.20
2019-02-20T05:48:20.384Z,12.65
2019-02-20T05:50:52.628Z,10.58
2019-02-20T05:53:24.865Z,10.45
2019-02-20T05:55:57.101Z,14.85
2019-02-20T05:58:29.329Z,10.68
2019-02-20T06:01:01.576Z,16.10
2019-02-20T06:03:33.830Z,12.50
2019-02-20T06:06:06.100Z,13.03
2019-02-20T06:08:38.327Z,11.60
2019-02-20T06:11:14.788Z,17.27
2019-02-20T06:13:44.527Z,15.68
2019-02-20T06:16:16.767Z,13.43
2019-02-20T06:18:48.996Z,15.93
2019-02-20T06:21:21.236Z,8.65
2019-02-20T06:23:53.481Z,10.60
2019-02-20T06:26:25.725Z,10.90
2019-02-20T06:28:57.982Z,14.23
2019-02-20T06:31:30.268Z,16.12
2019-02-20T06:34:02.495Z,16.35
2019-02-20T06:36:34.763Z,15.90
2019-02-20T06:39:06.991Z,17.12
2019-02-20T06:41:39.614Z,12.80
2019-02-20T06:44:11.980Z,19.17
2019-02-20T06:46:44.304Z,19.23
2019-02-20T06:49:16.663Z,15.90
2019-02-20T06:51:48.907Z,19.77
2019-02-20T06:54:21.146Z,17.12
2019-02-20T06:56:53.374Z,16.00
2019-02-20T06:59:25.602Z,13.05
2019-02-20T07:01:57.847Z,17.07
2019-02-20T07:04:30.091Z,17.45
2019-02-20T07:07:06.866Z,19.65
2019-02-20T07:09:46.713Z,23.60
2019-02-20T07:12:21.367Z,15.90
2019-02-20T07:14:55.148Z,22.27
2019-02-20T07:17:28.967Z,14.83
2019-02-20T07:20:03.970Z,14.93
2019-02-20T07:22:37.740Z,19.67
2019-02-20T07:25:14.186Z,14.43
2019-02-20T07:27:49.208Z,22.17
2019-02-20T07:30:21.481Z,18.17
2019-02-20T07:32:53.976Z,18.12
2019-02-20T07:35:26.212Z,18.48
2019-02-20T07:37:58.487Z,17.52
2019-02-20T07:40:30.806Z,17.02
2019-02-20T07:43:03.031Z,19.07
2019-02-20T07:45:35.306Z,12.55
2019-02-20T07:48:07.554Z,19.32
2019-02-20T07:50:40.735Z,23.75
2019-02-20T07:53:13.194Z,23.95
2019-02-20T07:55:45.805Z,18.87
2019-02-20T07:58:18.914Z,17.90
2019-02-20T08:00:51.116Z,23.32
2019-02-20T08:03:23.377Z,16.50
2019-02-20T08:05:55.613Z,16.30
2019-02-20T08:08:27.881Z,21.05
2019-02-20T08:11:00.110Z,21.42
2019-02-20T08:13:39.045Z,19.73
2019-02-20T08:16:06.322Z,24.52
2019-02-20T08:18:38.541Z,19.32
2019-02-20T08:21:10.773Z,16.05
2019-02-20T08:23:43.021Z,20.75
2019-02-20T08:26:15.260Z,26.40
2019-02-20T08:28:47.517Z,16.30
2019-02-20T08:31:19.762Z,19.20
2019-02-20T08:33:52.097Z,20.62
2019-02-20T08:36:24.329Z,19.95
2019-02-20T08:38:56.791Z,24.47
2019-02-20T08:41:29.023Z,19.80
2019-02-20T08:44:01.260Z,28.00
2019-02-20T08:46:33.499Z,22.73
2019-02-20T08:49:05.719Z,26.82
2019-02-20T08:51:38.046Z,21.85
2019-02-20T08:54:10.289Z,20.17
2019-02-20T08:56:42.515Z,14.93
2019-02-20T08:59:14.772Z,18.00
2019-02-20T09:01:47.030Z,26.57
2019-02-20T09:04:19.293Z,25.43
2019-02-20T09:06:51.535Z,19.07
2019-02-20T09:09:23.789Z,24.30
2019-02-20T09:11:56.033Z,24.43
2019-02-20T09:14:28.298Z,23.90
2019-02-20T09:17:00.546Z,21.90
2019-02-20T09:19:32.782Z,26.27
2019-02-20T09:22:05.011Z,33.90
2019-02-20T09:24:37.295Z,20.50
2019-02-20T09:27:09.659Z,25.27
2019-02-20T09:29:41.932Z,26.23
2019-02-20T09:32:14.180Z,32.63
2019-02-20T09:34:46.470Z,19.80
2019-02-20T09:37:18.705Z,22.37
2019-02-20T09:39:50.968Z,20.62
2019-02-20T09:42:23.319Z,29.05
2019-02-20T09:44:55.518Z,26.87
2019-02-20T09:47:27.751Z,24.05
2019-02-20T09:50:00.025Z,29.45
2019-02-20T09:52:32.248Z,19.17
2019-02-20T09:55:05.828Z,20.75
2019-02-20T09:57:38.079Z,27.48
2019-02-20T10:00:14.426Z,23.55
2019-02-20T10:02:47.410Z,24.32
2019-02-20T10:05:19.784Z,29.35
2019-02-20T10:07:52.037Z,26.85
2019-02-20T10:10:24.303Z,21.52
2019-02-20T10:12:56.539Z,20.30
2019-02-20T10:15:28.791Z,23.25
2019-02-20T10:18:01.032Z,22.42
2019-02-20T10:20:33.308Z,19.62
2019-02-20T10:23:05.544Z,22.80
2019-02-20T10:25:37.848Z,20.37
2019-02-20T10:28:10.093Z,23.90
2019-02-20T10:30:42.371Z,23.52
2019-02-20T10:33:14.599Z,23.98
2019-02-20T10:35:46.867Z,23.22
2019-02-20T10:38:19.103Z,24.23
2019-02-20T10:40:51.421Z,28.75
2019-02-20T10:43:23.658Z,27.00
2019-02-20T10:45:55.952Z,18.07
2019-02-20T10:48:28.204Z,22.50
2019-02-20T10:51:00.476Z,19.07
2019-02-20T10:53:32.727Z,20.80
2019-02-20T10:56:09.402Z,22.07
2019-02-20T10:58:38.961Z,18.40
2019-02-20T11:01:11.276Z,26.27
2019-02-20T11:03:43.508Z,20.17
2019-02-20T11:06:15.771Z,18.57
2019-02-20T11:08:48.008Z,17.15
2019-02-20T11:11:20.268Z,19.92
2019-02-20T11:13:52.523Z,18.37
2019-02-20T11:16:24.795Z,18.85
2019-02-20T11:18:57.018Z,19.15
2019-02-20T11:21:29.302Z,21.57
2019-02-20T11:24:01.535Z,15.23
2019-02-20T11:26:43.291Z,16.40
2019-02-20T11:29:07.791Z,18.17
2019-02-20T11:31:40.092Z,14.65
2019-02-20T11:34:12.398Z,16.55
2019-02-20T11:36:44.651Z,17.75
2019-02-20T11:39:16.895Z,15.78
2019-02-20T11:41:49.172Z,14.33
2019-02-20T11:44:21.428Z,18.05
2019-02-20T11:46:53.665Z,17.00
2019-02-20T11:49:25.902Z,16.20
2019-02-20T11:51:58.206Z,14.58
2019-02-20T11:54:30.437Z,13.53
2019-02-20T11:57:02.711Z,12.15
2019-02-20T11:59:35.120Z,15.65
2019-02-20T12:02:07.377Z,15.03
2019-02-20T12:04:39.714Z,19.62
2019-02-20T12:07:12.019Z,15.53
2019-02-20T12:09:45.382Z,17.62
2019-02-20T12:12:17.696Z,13.58
2019-02-20T12:14:49.927Z,13.35
2019-02-20T12:17:22.183Z,15.80
2019-02-20T12:19:54.412Z,13.28
2019-02-20T12:22:26.663Z,14.07
2019-02-20T12:24:59.367Z,14.25
2019-02-20T12:27:33.095Z,14.87
2019-02-20T12:30:07.011Z,19.10
2019-02-20T12:32:39.345Z,15.10
2019-02-20T12:35:11.569Z,13.83
2019-02-20T12:37:43.824Z,11.08
2019-02-20T12:40:16.040Z,16.45
2019-02-20T12:42:48.302Z,19.40
2019-02-20T12:45:20.539Z,11.15
2019-02-20T12:47:52.787Z,9.93
2019-02-20T12:50:25.025Z,13.90
2019-02-20T12:52:57.380Z,14.23
2019-02-20T12:55:29.609Z,14.03
2019-02-20T12:58:01.871Z,10.88
2019-02-20T13:00:34.131Z,11.90
2019-02-20T13:03:06.374Z,13.88
2019-02-20T13:05:38.599Z,12.70
2019-02-20T13:08:10.859Z,14.90
2019-02-20T13:10:43.174Z,13.05
2019-02-20T13:13:15.702Z,10.40
2019-02-20T13:15:47.927Z,12.07
2019-02-20T13:18:20.203Z,13.75
2019-02-20T13:20:52.572Z,6.47
2019-02-20T13:23:24.862Z,4.72
2019-02-20T13:25:57.108Z,7.25
2019-02-20T13:28:29.442Z,7.75
2019-02-20T13:31:01.916Z,6.87
2019-02-20T13:33:34.288Z,7.42
2019-02-20T13:36:06.531Z,7.55
2019-02-20T13:38:38.777Z,6.50
2019-02-20T13:41:12.571Z,7.10
2019-02-20T13:43:44.872Z,5.10
2019-02-20T13:46:17.119Z,4.03
2019-02-20T13:48:49.448Z,6.25
2019-02-20T13:51:21.669Z,3.92
2019-02-20T13:53:54.284Z,6.60
2019-02-20T13:56:26.577Z,9.10
2019-02-20T13:58:58.832Z,6.45
2019-02-20T14:01:31.140Z,9.10
2019-02-20T14:04:03.386Z,8.43
2019-02-20T14:06:35.947Z,8.08
2019-02-20T14:09:08.259Z,7.00
2019-02-20T14:11:40.500Z,8.35
2019-02-20T14:14:12.770Z,6.65
2019-02-20T14:16:45.027Z,4.72
2019-02-20T14:19:17.559Z,8.80
2019-02-20T14:21:49.788Z,8.05
2019-02-20T14:24:22.030Z,6.15
2019-02-20T14:26:54.260Z,3.62
2019-02-20T14:29:26.515Z,6.72
2019-02-20T14:31:59.040Z,7.47
2019-02-20T14:34:31.336Z,7.67
2019-02-20T14:37:03.573Z,5.47
2019-02-20T14:39:35.820Z,5.33
2019-02-20T14:42:08.154Z,3.98
2019-02-20T14:44:40.672Z,8.23
2019-02-20T14:47:12.903Z,9.18
2019-02-20T14:49:45.150Z,4.75
2019-02-20T14:52:18.635Z,5.28
2019-02-20T14:54:50.929Z,7.40
2019-02-20T14:57:23.157Z,8.28
2019-02-20T14:59:55.404Z,11.40
2019-02-20T15:02:27.707Z,8.83
2019-02-20T15:05:00.028Z,9.48
2019-02-20T15:07:33.843Z,5.87
2019-02-20T15:10:07.730Z,10.05
2019-02-20T15:12:40.081Z,7.75
2019-02-20T15:15:12.681Z,9.48
2019-02-20T15:17:44.900Z,8.05
2019-02-20T15:20:17.331Z,5.95
2019-02-20T15:22:49.552Z,10.03
2019-02-20T15:25:21.804Z,12.68
2019-02-20T15:27:54.065Z,7.42
2019-02-20T15:30:26.342Z,12.33
2019-02-20T15:32:58.936Z,6.83
2019-02-20T15:35:31.265Z,11.45
2019-02-20T15:38:05.166Z,11.65
2019-02-20T15:40:37.782Z,6.55
2019-02-20T15:43:10.021Z,7.85
2019-02-20T15:45:42.615Z,6.00
2019-02-20T15:48:22.881Z,9.30
2019-02-20T15:50:48.849Z,7.92
2019-02-20T15:53:21.091Z,10.48
2019-02-20T15:55:54.251Z,15.18
2019-02-20T15:58:27.311Z,7.90
2019-02-20T16:00:59.619Z,7.87
2019-02-20T16:03:31.915Z,8.18
2019-02-20T16:06:04.260Z,9.00
2019-02-20T16:08:36.508Z,10.05
2019-02-20T16:11:08.771Z,8.33
2019-02-20T16:13:40.997Z,7.97
2019-02-20T16:16:24.977Z,7.27
2019-02-20T16:18:57.268Z,10.55
2019-02-20T16:21:29.836Z,9.05
2019-02-20T16:24:02.144Z,8.73
2019-02-20T16:26:34.412Z,10.50
2019-02-20T16:29:06.727Z,7.60
2019-02-20T16:31:39.001Z,8.73
2019-02-20T16:34:11.213Z,7.40
2019-02-20T16:36:43.481Z,8.60
2019-02-20T16:39:15.729Z,8.55
2019-02-20T16:41:48.003Z,7.15
2019-02-20T16:44:20.232Z,9.70
2019-02-20T16:46:52.476Z,6.67
2019-02-20T16:49:24.698Z,7.78
2019-02-20T16:51:56.941Z,6.12
2019-02-20T16:54:29.164Z,6.83
2019-02-20T16:57:01.432Z,10.48
2019-02-20T16:59:33.681Z,6.67
2019-02-20T17:02:07.486Z,8.23
2019-02-20T17:04:39.707Z,7.30
2019-02-20T17:07:11.995Z,5.58
2019-02-20T17:09:44.207Z,6.90
2019-02-20T17:12:16.473Z,7.72
2019-02-20T17:14:48.707Z,8.23
2019-02-20T17:17:21.063Z,6.70
2019-02-20T17:19:53.290Z,9.03
2019-02-20T17:22:26.087Z,9.38
2019-02-20T17:24:58.304Z,6.92
2019-02-20T17:27:30.556Z,6.50
2019-02-20T17:30:02.835Z,6.45
2019-02-20T17:32:35.153Z,6.37
2019-02-20T17:35:09.012Z,11.73
2019-02-20T17:37:46.173Z,8.10
2019-02-20T17:40:18.459Z,5.87
2019-02-20T17:42:50.700Z,9.48
2019-02-20T17:45:22.943Z,6.72
2019-02-20T17:47:55.220Z,8.50
2019-02-20T17:50:27.539Z,5.53
2019-02-20T17:52:59.868Z,5.30
2019-02-20T17:55:32.101Z,7.35
2019-02-20T17:58:04.472Z,4.50
2019-02-20T18:00:36.996Z,7.03
2019-02-20T18:03:09.579Z,5.58
2019-02-20T18:05:41.870Z,6.33
2019-02-20T18:08:14.105Z,6.15
2019-02-20T18:10:46.793Z,4.30
2019-02-20T18:13:19.724Z,5.22
2019-02-20T18:15:52.071Z,7.75
2019-02-20T18:18:24.280Z,5.83
2019-02-20T18:20:56.551Z,7.45
2019-02-20T18:23:28.811Z,5.62
2019-02-20T18:26:01.060Z,7.33
2019-02-20T18:28:33.286Z,5.72
2019-02-20T18:31:05.550Z,5.60
2019-02-20T18:33:37.832Z,7.75
2019-02-20T18:36:11.633Z,7.62
2019-02-20T18:38:44.044Z,6.67
2019-02-20T18:41:16.273Z,6.42
2019-02-20T18:43:48.504Z,6.83
2019-02-20T18:46:20.739Z,9.23
2019-02-20T18:48:53.006Z,7.05
2019-02-20T18:51:25.232Z,6.22
2019-02-20T18:53:57.455Z,11.53
2019-02-20T18:56:29.719Z,7.40
2019-02-20T18:59:02.017Z,6.37
2019-02-20T19:01:34.266Z,8.15
2019-02-20T19:04:08.102Z,6.50
2019-02-20T19:06:40.474Z,9.65
2019-02-20T19:09:14.475Z,9.73
2019-02-20T19:11:51.277Z,11.57
2019-02-20T19:14:25.369Z,9.13
2019-02-20T19:16:59.114Z,9.58
2019-02-20T19:19:32.947Z,11.97
2019-02-20T19:22:23.247Z,13.48
2019-02-20T19:25:09.132Z,13.37
2019-02-20T19:27:45.645Z,8.68
2019-02-20T19:30:19.406Z,11.57
2019-02-20T19:32:55.929Z,11.03
2019-02-20T19:35:29.712Z,12.37
2019-02-20T19:38:09.124Z,11.35
2019-02-20T19:40:53.952Z,9.10
2019-02-20T19:43:34.483Z,8.30
2019-02-20T19:46:24.755Z,8.08
2019-02-20T19:48:58.578Z,7.87
2019-02-20T19:51:38.477Z,7.87
2019-02-20T19:54:17.989Z,7.58
2019-02-20T19:57:08.519Z,8.17
2019-02-20T19:59:44.736Z,8.73
2019-02-20T20:02:28.428Z,8.10
2019-02-20T20:05:11.143Z,13.00
2019-02-20T20:08:03.305Z,9.65
2019-02-20T20:10:37.203Z,9.55
2019-02-20T20:13:13.653Z,10.05
2019-02-20T20:15:47.499Z,9.35
2019-02-20T20:18:21.432Z,13.95
2019-02-20T20:20:55.231Z,8.75
2019-02-20T20:23:45.734Z,10.43
2019-02-20T20:26:34.700Z,9.53
2019-02-20T20:29:08.524Z,9.78
2019-02-20T20:31:48.111Z,12.65
2019-02-20T20:34:22.072Z,13.75
2019-02-20T20:37:01.662Z,10.48
2019-02-20T20:39:36.494Z,13.15
2019-02-20T20:42:16.390Z,12.95
2019-02-20T20:44:56.448Z,13.43
2019-02-20T20:47:46.771Z,11.93
2019-02-20T20:50:32.415Z,13.28
2019-02-20T20:53:11.907Z,12.70
2019-02-20T20:55:48.669Z,15.83
2019-02-20T20:58:31.610Z,11.45
2019-02-20T21:01:05.395Z,13.93
2019-02-20T21:03:55.707Z,10.68
2019-02-20T21:06:35.251Z,14.47
2019-02-20T21:09:11.936Z,12.63
2019-02-20T21:12:00.589Z,16.02
2019-02-20T21:14:40.084Z,11.75
2019-02-20T21:17:15.900Z,13.87
2019-02-20T21:19:49.354Z,12.28
2019-02-20T21:22:25.856Z,13.30
2019-02-20T21:25:11.438Z,11.63
2019-02-20T21:27:54.265Z,15.18
2019-02-20T21:30:33.985Z,10.13
2019-02-20T21:33:16.700Z,13.40
2019-02-20T21:35:53.305Z,11.88
2019-02-20T21:38:30.029Z,9.73
2019-02-20T21:41:06.496Z,11.10
2019-02-20T21:43:46.344Z,15.65
2019-02-20T21:46:22.887Z,13.33
2019-02-20T21:48:59.323Z,14.00
2019-02-20T21:51:33.105Z,9.78
2019-02-20T21:54:12.956Z,12.98
2019-02-20T21:56:46.839Z,12.83
2019-02-20T21:59:26.682Z,13.50
2019-02-20T22:02:06.160Z,12.93
2019-02-20T22:04:52.016Z,13.58
2019-02-20T22:07:34.649Z,11.10
2019-02-20T22:10:20.392Z,10.82
2019-02-20T22:13:03.173Z,13.62
2019-02-20T22:15:39.669Z,17.07
2019-02-20T22:18:28.524Z,15.07
2019-02-20T22:21:20.155Z,14.15
2019-02-20T22:23:54.173Z,15.88
2019-02-20T22:26:27.953Z,15.08
2019-02-20T22:29:10.581Z,12.10
2019-02-20T22:31:56.184Z,11.90
2019-02-20T22:34:30.008Z,14.95
2019-02-20T22:37:09.559Z,17.00
2019-02-20T22:39:49.078Z,15.43
2019-02-20T22:42:22.929Z,13.38
2019-02-20T22:44:59.469Z,13.80
2019-02-20T22:47:36.193Z,13.18
2019-02-20T22:50:15.964Z,13.37
2019-02-20T22:52:55.386Z,18.60
2019-02-20T22:55:31.876Z,13.55
2019-02-20T22:58:23.845Z,11.25
2019-02-20T23:01:00.550Z,14.45
2019-02-20T23:03:34.367Z,13.35
2019-02-20T23:06:16.989Z,11.75
2019-02-20T23:08:56.651Z,12.45
2019-02-20T23:11:30.433Z,11.15
2019-02-20T23:14:04.221Z,11.15
2019-02-20T23:16:36.473Z,11.85
2019-02-20T23:19:08.959Z,12.07
2019-02-20T23:21:41.193Z,13.03
2019-02-20T23:24:13.431Z,10.03
2019-02-20T23:26:45.711Z,10.90
2019-02-20T23:29:17.916Z,12.98
2019-02-20T23:31:50.169Z,11.88
2019-02-20T23:34:22.415Z,14.28
2019-02-20T23:36:54.667Z,9.75
2019-02-20T23:39:26.926Z,12.20
2019-02-20T23:41:59.180Z,11.30
2019-02-20T23:44:31.491Z,10.93
2019-02-20T23:47:03.791Z,12.40
2019-02-20T23:49:36.046Z,10.90
2019-02-20T23:52:08.302Z,11.55
2019-02-20T23:54:40.533Z,12.13
2019-02-20T23:57:12.792Z,9.95
2019-02-20T23:59:45.038Z,12.68
